createdAt,value
2018-11-21T00:02:22.633Z,285.50
2018-11-21T00:04:50.055Z,265.50
2018-11-21T00:07:17.463Z,247.43
2018-11-21T00:09:44.898Z,283.17
2018-11-21T00:12:12.353Z,269.90
2018-11-21T00:14:39.807Z,257.47
2018-11-21T00:17:08.295Z,255.60
2018-11-21T00:19:35.745Z,273.43
2018-11-21T00:22:03.217Z,316.97
2018-11-21T00:24:30.632Z,269.07
2018-11-21T00:26:58.091Z,262.67
2018-11-21T00:29:25.474Z,301.90
2018-11-21T00:31:52.890Z,259.50
2018-11-21T00:34:20.483Z,286.70
2018-11-21T00:36:47.913Z,274.43
2018-11-21T00:39:15.335Z,255.90
2018-11-21T00:41:42.788Z,257.40
2018-11-21T00:44:10.237Z,274.93
2018-11-21T00:46:37.652Z,276.73
2018-11-21T00:49:05.305Z,276.30
2018-11-21T00:51:32.753Z,267.97
2018-11-21T00:54:00.341Z,289.63
2018-11-21T00:56:27.601Z,276.67
2018-11-21T00:58:55.060Z,284.10
2018-11-21T01:01:22.764Z,266.27
2018-11-21T01:03:50.385Z,278.17
2018-11-21T01:06:17.798Z,279.90
2018-11-21T01:08:45.256Z,290.13
2018-11-21T01:11:12.664Z,291.27
2018-11-21T01:13:40.074Z,282.90
2018-11-21T01:16:08.414Z,268.07
2018-11-21T01:18:35.830Z,304.00
2018-11-21T01:21:03.465Z,254.97
2018-11-21T01:26:19.668Z,280.90
2018-11-21T01:28:48.042Z,315.47
2018-11-21T01:31:15.537Z,280.47
2018-11-21T01:33:42.981Z,287.37
2018-11-21T01:36:10.441Z,328.57
2018-11-21T01:38:37.896Z,321.83
2018-11-21T01:41:05.370Z,272.50
2018-11-21T01:43:32.838Z,327.50
2018-11-21T01:46:00.295Z,297.47
2018-11-21T01:48:27.734Z,295.33
2018-11-21T01:50:55.144Z,281.63
2018-11-21T01:53:22.656Z,341.83
2018-11-21T01:55:50.091Z,246.33
2018-11-21T01:58:18.634Z,334.30
2018-11-21T02:00:46.011Z,279.47
2018-11-21T02:03:13.537Z,318.47
2018-11-21T02:05:40.944Z,272.90
2018-11-21T02:08:08.346Z,304.83
2018-11-21T02:10:35.717Z,273.33
2018-11-21T02:13:03.228Z,313.17
2018-11-21T02:15:30.587Z,266.67
2018-11-21T02:17:58.148Z,302.47
2018-11-21T02:20:25.564Z,249.30
2018-11-21T02:22:53.065Z,271.47
2018-11-21T02:25:20.486Z,274.37
2018-11-21T02:27:47.963Z,272.77
2018-11-21T02:30:15.288Z,268.07
2018-11-21T02:32:42.647Z,270.07
2018-11-21T02:35:10.073Z,262.60
2018-11-21T02:37:37.436Z,243.43
2018-11-21T02:40:06.526Z,248.30
2018-11-21T02:42:33.922Z,277.43
2018-11-21T02:45:01.478Z,275.67
2018-11-21T02:47:28.820Z,244.47
2018-11-21T02:49:56.195Z,246.17
2018-11-21T02:52:23.605Z,252.27
2018-11-21T02:54:51.081Z,249.27
2018-11-21T02:57:24.060Z,252.07
2018-11-21T02:59:57.141Z,218.33
2018-11-21T03:02:24.796Z,241.23
2018-11-21T03:04:52.216Z,215.93
2018-11-21T03:07:19.529Z,223.20
2018-11-21T03:09:46.937Z,258.03
2018-11-21T03:12:14.320Z,244.37
2018-11-21T03:14:41.693Z,218.00
2018-11-21T03:17:09.441Z,213.87
2018-11-21T03:19:36.784Z,229.70
2018-11-21T03:22:04.226Z,208.37
2018-11-21T03:24:31.614Z,217.07
2018-11-21T03:26:58.963Z,221.47
2018-11-21T03:29:26.552Z,228.93
2018-11-21T03:31:53.915Z,213.80
2018-11-21T03:34:21.609Z,221.70
2018-11-21T03:36:50.459Z,215.07
2018-11-21T03:39:19.225Z,226.70
2018-11-21T03:41:46.810Z,215.83
2018-11-21T03:44:14.159Z,228.87
2018-11-21T03:46:42.097Z,215.70
2018-11-21T03:49:09.495Z,235.03
2018-11-21T03:51:37.491Z,211.50
2018-11-21T03:54:05.298Z,205.47
2018-11-21T03:56:32.860Z,224.97
2018-11-21T03:59:00.265Z,241.07
2018-11-21T04:01:27.821Z,232.03
2018-11-21T04:03:55.206Z,225.13
2018-11-21T04:06:23.414Z,212.97
2018-11-21T04:08:50.205Z,222.37
2018-11-21T04:11:17.597Z,205.80
2018-11-21T04:13:45.001Z,266.47
2018-11-21T04:16:12.488Z,221.50
2018-11-21T04:18:40.031Z,256.03
2018-11-21T04:21:07.944Z,195.67
2018-11-21T04:23:35.486Z,261.37
2018-11-21T04:26:02.873Z,207.27
2018-11-21T04:28:30.316Z,254.37
2018-11-21T04:30:57.712Z,244.33
2018-11-21T04:33:25.131Z,227.30
2018-11-21T04:35:52.550Z,197.67
2018-11-21T04:38:19.908Z,247.77
2018-11-21T04:40:47.593Z,204.47
2018-11-21T04:43:16.007Z,232.43
2018-11-21T04:45:43.402Z,221.70
2018-11-21T04:48:10.954Z,233.27
2018-11-21T04:50:38.592Z,212.97
2018-11-21T04:53:06.015Z,231.27
2018-11-21T04:55:33.395Z,188.20
2018-11-21T04:58:00.845Z,219.87
2018-11-21T05:00:28.200Z,209.70
2018-11-21T05:02:55.647Z,212.33
2018-11-21T05:05:23.470Z,195.93
2018-11-21T05:07:51.273Z,214.40
2018-11-21T05:10:19.300Z,218.50
2018-11-21T05:12:46.916Z,208.17
2018-11-21T05:15:14.346Z,215.07
2018-11-21T05:17:41.782Z,197.13
2018-11-21T05:20:09.206Z,220.47
2018-11-21T05:22:36.793Z,197.63
2018-11-21T05:25:05.016Z,214.67
2018-11-21T05:27:32.492Z,194.57
2018-11-21T05:30:00.192Z,204.30
2018-11-21T05:32:27.614Z,188.23
2018-11-21T05:34:55.091Z,191.40
2018-11-21T05:37:22.435Z,195.37
2018-11-21T05:39:49.853Z,195.60
2018-11-21T05:42:17.289Z,197.00
2018-11-21T05:44:44.678Z,203.77
2018-11-21T05:47:13.260Z,213.77
2018-11-21T05:49:40.694Z,203.70
2018-11-21T05:52:08.153Z,201.67
2018-11-21T05:54:35.583Z,204.83
2018-11-21T05:57:02.973Z,198.67
2018-11-21T05:59:30.414Z,224.20
2018-11-21T06:01:57.805Z,207.37
2018-11-21T06:04:25.746Z,223.80
2018-11-21T06:06:53.193Z,205.10
2018-11-21T06:09:20.613Z,210.87
2018-11-21T06:11:47.963Z,233.47
2018-11-21T06:14:15.357Z,223.97
2018-11-21T06:16:42.891Z,202.47
2018-11-21T06:19:10.308Z,205.23
2018-11-21T06:21:37.676Z,210.47
2018-11-21T06:24:05.086Z,213.03
2018-11-21T06:26:32.537Z,224.40
2018-11-21T06:28:59.902Z,211.77
2018-11-21T06:31:27.390Z,228.13
2018-11-21T06:33:55.204Z,266.20
2018-11-21T06:36:22.581Z,239.50
2018-11-21T06:38:49.949Z,290.33
2018-11-21T06:41:17.340Z,204.63
2018-11-21T06:43:44.679Z,232.57
2018-11-21T06:46:12.074Z,198.47
2018-11-21T06:48:39.597Z,232.27
2018-11-21T06:51:06.979Z,195.83
2018-11-21T06:53:34.325Z,256.40
2018-11-21T06:56:01.677Z,212.77
2018-11-21T06:58:28.995Z,249.37
2018-11-21T07:00:56.372Z,213.03
2018-11-21T07:03:24.136Z,249.57
2018-11-21T07:05:51.508Z,215.07
2018-11-21T07:08:18.907Z,247.50
2018-11-21T07:10:46.279Z,213.27
2018-11-21T07:13:13.668Z,319.93
2018-11-21T07:15:41.079Z,206.57
2018-11-21T07:18:08.539Z,233.97
2018-11-21T07:20:35.968Z,192.87
2018-11-21T07:23:03.728Z,252.63
2018-11-21T07:25:31.138Z,204.47
2018-11-21T07:27:58.467Z,218.27
2018-11-21T07:30:25.872Z,209.93
2018-11-21T07:32:53.273Z,219.03
2018-11-21T07:35:20.611Z,210.63
2018-11-21T07:37:47.955Z,206.20
2018-11-21T07:40:15.518Z,200.73
2018-11-21T07:42:42.879Z,209.50
2018-11-21T07:45:12.130Z,203.43
2018-11-21T07:47:40.355Z,215.70
2018-11-21T07:50:11.178Z,203.27
2018-11-21T07:52:38.662Z,221.33
2018-11-21T07:55:06.679Z,206.13
2018-11-21T07:57:35.865Z,222.67
2018-11-21T08:01:16.939Z,212.93
2018-11-21T08:03:46.454Z,240.13
2018-11-21T08:06:25.890Z,201.70
2018-11-21T08:09:07.466Z,238.93
2018-11-21T08:11:55.258Z,202.10
2018-11-21T08:14:40.869Z,242.37
2018-11-21T08:17:26.526Z,218.60
2018-11-21T08:20:16.488Z,210.93
2018-11-21T08:23:12.161Z,211.23
2018-11-21T08:25:57.642Z,210.90
2018-11-21T08:28:28.292Z,237.90
2018-11-21T08:30:55.690Z,244.33
2018-11-21T08:33:23.357Z,245.57
2018-11-21T08:35:50.692Z,205.50
2018-11-21T08:38:18.065Z,260.43
2018-11-21T08:40:45.498Z,222.27
2018-11-21T08:43:12.855Z,245.87
2018-11-21T08:45:40.258Z,228.13
2018-11-21T08:48:07.895Z,273.20
2018-11-21T08:50:35.262Z,224.97
2018-11-21T08:53:03.006Z,244.43
2018-11-21T08:55:30.725Z,253.77
2018-11-21T08:57:58.083Z,235.40
2018-11-21T09:00:25.446Z,208.27
2018-11-21T09:02:53.245Z,221.30
2018-11-21T09:05:20.855Z,220.87
2018-11-21T09:07:48.209Z,203.03
2018-11-21T09:10:15.615Z,214.07
2018-11-21T09:12:43.080Z,230.03
2018-11-21T09:15:12.836Z,213.27
2018-11-21T09:17:40.545Z,221.33
2018-11-21T09:20:09.220Z,207.27
2018-11-21T09:22:36.638Z,209.73
2018-11-21T09:25:05.674Z,203.27
2018-11-21T09:27:33.646Z,212.07
2018-11-21T09:30:01.215Z,224.97
2018-11-21T09:32:28.661Z,217.80
2018-11-21T09:34:56.171Z,218.13
2018-11-21T09:37:23.606Z,209.97
2018-11-21T09:39:51.198Z,224.07
2018-11-21T09:42:18.594Z,217.93
2018-11-21T09:44:45.961Z,210.83
2018-11-21T09:47:13.353Z,218.40
2018-11-21T09:49:40.774Z,217.53
2018-11-21T09:52:08.846Z,222.93
2018-11-21T09:54:36.229Z,230.30
2018-11-21T09:57:03.888Z,214.10
2018-11-21T09:59:31.206Z,229.47
2018-11-21T10:02:53.542Z,229.07
2018-11-21T10:05:20.871Z,208.73
2018-11-21T10:08:48.463Z,240.17
2018-11-21T10:11:16.053Z,215.33
2018-11-21T10:13:43.416Z,248.27
2018-11-21T10:16:10.915Z,238.47
2018-11-21T10:18:39.566Z,249.53
2018-11-21T10:21:11.776Z,215.67
2018-11-21T10:23:39.200Z,249.80
2018-11-21T10:26:06.961Z,234.50
2018-11-21T10:28:34.399Z,240.27
2018-11-21T10:31:01.712Z,223.83
2018-11-21T10:33:29.263Z,265.43
2018-11-21T10:35:56.754Z,225.43
2018-11-21T10:38:24.169Z,258.83
2018-11-21T10:40:51.552Z,221.63
2018-11-21T10:43:18.890Z,256.93
2018-11-21T10:45:46.232Z,227.53
2018-11-21T10:48:13.610Z,260.03
2018-11-21T10:50:40.988Z,204.83
2018-11-21T10:53:08.320Z,256.13
2018-11-21T10:55:36.443Z,206.33
2018-11-21T10:58:04.169Z,266.63
2018-11-21T11:00:49.773Z,220.33
2018-11-21T11:03:25.316Z,258.13
2018-11-21T11:06:24.717Z,225.33
2018-11-21T11:09:11.790Z,228.63
2018-11-21T11:11:52.556Z,260.70
2018-11-21T11:14:51.725Z,245.97
2018-11-21T11:17:47.703Z,212.20
2018-11-21T11:20:33.113Z,253.37
2018-11-21T11:23:32.156Z,254.80
2018-11-21T11:26:37.164Z,217.97
2018-11-21T11:29:16.498Z,222.80
2018-11-21T11:32:12.539Z,210.03
2018-11-21T11:34:59.675Z,212.47
2018-11-21T11:37:45.276Z,218.07
2018-11-21T11:40:30.963Z,222.20
2018-11-21T11:43:16.775Z,240.07
2018-11-21T11:46:02.334Z,217.97
2018-11-21T11:49:01.188Z,258.67
2018-11-21T11:51:57.064Z,219.80
2018-11-21T11:54:42.595Z,215.77
2018-11-21T11:57:28.194Z,197.93
2018-11-21T12:00:13.964Z,205.77
2018-11-21T12:02:59.579Z,227.87
2018-11-21T12:05:58.618Z,224.60
2018-11-21T12:08:43.899Z,253.27
2018-11-21T12:11:49.309Z,210.17
2018-11-21T12:14:44.605Z,227.53
2018-11-21T12:17:39.056Z,211.43
2018-11-21T12:20:39.037Z,223.73
2018-11-21T12:23:24.698Z,240.40
2018-11-21T12:26:14.178Z,202.13
2018-11-21T12:29:04.156Z,244.23
2018-11-21T12:31:54.107Z,235.23
2018-11-21T12:34:53.839Z,217.37
2018-11-21T12:37:34.104Z,220.23
2018-11-21T12:40:24.102Z,232.07
2018-11-21T12:43:14.494Z,217.63
2018-11-21T12:46:00.108Z,233.40
2018-11-21T12:48:49.991Z,251.30
2018-11-21T12:51:52.641Z,216.83
2018-11-21T12:54:41.819Z,221.20
2018-11-21T12:57:27.353Z,212.40
2018-11-21T13:00:13.850Z,210.53
2018-11-21T13:03:10.187Z,230.97
2018-11-21T13:05:55.556Z,249.27
2018-11-21T13:08:42.638Z,264.07
2018-11-21T13:11:44.517Z,233.10
2018-11-21T13:14:31.272Z,253.53
2018-11-21T13:17:16.791Z,232.23
2018-11-21T13:20:19.013Z,256.30
2018-11-21T13:23:08.924Z,242.10
2018-11-21T13:26:10.760Z,241.93
2018-11-21T13:28:56.079Z,270.27
2018-11-21T13:31:38.167Z,242.57
2018-11-21T13:34:24.037Z,251.93
2018-11-21T13:37:16.999Z,257.03
2018-11-21T13:39:57.781Z,253.87
2018-11-21T13:42:45.507Z,261.37
2018-11-21T13:45:31.258Z,260.20
2018-11-21T13:48:24.953Z,313.37
2018-11-21T13:51:04.225Z,260.23
2018-11-21T13:53:46.865Z,277.83
2018-11-21T13:56:14.662Z,273.00
2018-11-21T13:58:43.543Z,276.07
2018-11-21T14:01:11.229Z,260.63
2018-11-21T14:03:43.640Z,292.10
2018-11-21T14:06:11.172Z,259.83
2018-11-21T14:08:38.682Z,274.60
2018-11-21T14:11:06.222Z,275.53
2018-11-21T14:13:33.615Z,284.33
2018-11-21T14:16:01.346Z,268.80
2018-11-21T14:18:28.749Z,299.47
2018-11-21T14:20:56.152Z,265.67
2018-11-21T14:23:23.698Z,315.00
2018-11-21T14:25:51.098Z,266.23
2018-11-21T14:28:18.757Z,304.90
2018-11-21T14:30:46.254Z,262.57
2018-11-21T14:33:13.625Z,289.17
2018-11-21T14:35:41.019Z,256.37
2018-11-21T14:38:09.459Z,295.93
2018-11-21T14:40:36.883Z,280.90
2018-11-21T14:43:05.801Z,288.83
2018-11-21T14:45:34.914Z,288.33
2018-11-21T14:48:03.661Z,266.20
2018-11-21T14:50:39.044Z,256.50
2018-11-21T14:53:10.014Z,271.70
2018-11-21T14:55:30.074Z,262.97
2018-11-21T14:57:57.436Z,280.67
2018-11-21T15:00:24.974Z,261.73
2018-11-21T15:02:52.407Z,289.53
2018-11-21T15:05:19.795Z,272.23
2018-11-21T15:07:47.536Z,267.20
2018-11-21T15:10:14.969Z,271.57
2018-11-21T15:12:42.310Z,257.27
2018-11-21T15:15:13.630Z,262.37
2018-11-21T15:17:41.228Z,275.60
2018-11-21T15:20:11.369Z,265.63
2018-11-21T15:22:39.090Z,286.40
2018-11-21T15:25:09.369Z,271.57
2018-11-21T15:27:36.972Z,282.63
2018-11-21T15:30:11.525Z,256.70
2018-11-21T15:32:39.141Z,260.90
2018-11-21T15:35:06.624Z,267.40
2018-11-21T15:37:34.016Z,262.27
2018-11-21T15:40:01.426Z,275.73
2018-11-21T15:42:28.899Z,302.03
2018-11-21T15:44:56.260Z,261.30
2018-11-21T15:47:23.654Z,283.00
2018-11-21T15:49:51.063Z,266.40
2018-11-21T15:52:18.408Z,284.37
2018-11-21T15:54:46.578Z,259.63
2018-11-21T15:57:15.890Z,295.83
